Delta Virtual Airport Information Service

Jakarta Soekarno Hatta International Airport

ICAO: WIII Country: Indonesia
Latitude: -6.12556 Longitude: 106.656
Latest Arrival : DAC8099 (YSCB-WIII) Latest Departure : GIA838 (1) (WIII-WSSS)


WX CaptureLIVE
Data provided by noaa.gov | Fetched at 03:14:52

METAR : WIII 300800Z 05016KT 9999 FEW021 33/24 Q1005 NOSIG

TAF : WIII 300500Z 3006/0112 05012KT 9000 FEW020 BECMG 3013/3015 21004KT


Runway Data for WIII
Data provided by openaviationdata.com

Runway ID Mag Var Hdg Length Elevation Surface ILS Freq ILS Id ILS Slope
07L 0 68° 11803 ft 34 ft Concrete 111.5 ICHL 3
07R 0 68° 12011 ft 34 ft Concrete 110.5 ICHR 3
25L 0 248° 12011 ft 34 ft Concrete 111.1 ICGL 3
25R 0 248° 11803 ft 34 ft Concrete 110.9 ICGR 3

Jakarta Soekarno Hatta International Airport, Indonesia
Use only for reference purposes



Not for navigational purposes.